createdAt,value
2022-10-17T00:02:38.616Z,6.30
2022-10-17T00:08:40.873Z,7.97
2022-10-17T00:14:42.295Z,5.78
2022-10-17T00:20:43.744Z,6.53
2022-10-17T00:26:45.251Z,6.07
2022-10-17T00:32:46.709Z,5.88
2022-10-17T00:38:50.234Z,8.97
2022-10-17T00:45:07.254Z,7.57
2022-10-17T00:51:09.063Z,6.45
2022-10-17T00:57:11.012Z,6.37
2022-10-17T01:03:12.557Z,7.65
2022-10-17T01:09:14.015Z,6.80
2022-10-17T01:15:34.105Z,7.00
2022-10-17T01:21:44.643Z,5.35
2022-10-17T01:27:47.640Z,5.90
2022-10-17T01:34:12.699Z,6.05
2022-10-17T01:40:33.950Z,5.70
2022-10-17T01:46:39.751Z,5.18
2022-10-17T01:52:44.908Z,7.32
2022-10-17T01:58:48.955Z,5.60
2022-10-17T02:04:51.417Z,7.10
2022-10-17T02:10:58.257Z,5.47
2022-10-17T02:17:07.862Z,6.97
2022-10-17T02:23:12.088Z,6.38
2022-10-17T02:29:19.380Z,5.80
2022-10-17T02:35:22.292Z,7.22
2022-10-17T02:41:24.523Z,7.30
2022-10-17T02:47:29.297Z,5.53
2022-10-17T02:53:45.443Z,5.15
2022-10-17T02:59:47.501Z,5.07
2022-10-17T03:05:49.422Z,6.10
2022-10-17T03:11:51.092Z,7.03
2022-10-17T03:17:53.910Z,7.13
2022-10-17T03:23:55.617Z,6.63
2022-10-17T03:29:58.597Z,5.10
2022-10-17T03:36:04.572Z,4.43
2022-10-17T03:42:06.091Z,6.40
2022-10-17T03:48:08.115Z,5.72
2022-10-17T03:54:09.751Z,4.60
2022-10-17T04:00:11.864Z,5.10
2022-10-17T04:06:16.532Z,6.47
2022-10-17T04:12:19.336Z,6.57
2022-10-17T04:18:21.371Z,6.22
2022-10-17T04:24:22.958Z,6.47
2022-10-17T04:30:30.374Z,4.60
2022-10-17T04:36:32.001Z,5.05
2022-10-17T04:42:33.670Z,4.90
2022-10-17T04:48:35.322Z,6.60
2022-10-17T04:54:36.851Z,4.93
2022-10-17T05:00:44.094Z,5.80
2022-10-17T05:06:49.487Z,6.45
2022-10-17T05:13:12.742Z,4.60
2022-10-17T05:19:15.552Z,7.50
2022-10-17T05:25:21.931Z,5.80
2022-10-17T05:31:24.515Z,6.13
2022-10-17T05:37:26.287Z,6.88
2022-10-17T05:43:31.255Z,7.87
2022-10-17T05:49:45.183Z,6.38
2022-10-17T05:55:57.530Z,7.13
2022-10-17T06:01:59.346Z,7.03
2022-10-17T06:08:02.136Z,5.30
2022-10-17T06:14:05.925Z,7.90
2022-10-17T06:20:07.909Z,5.47
2022-10-17T06:26:09.803Z,6.18
2022-10-17T06:32:14.927Z,6.90
2022-10-17T06:38:19.447Z,4.43
2022-10-17T06:44:22.220Z,5.47
2022-10-17T06:50:43.634Z,8.30
2022-10-17T06:56:48.598Z,7.90
2022-10-17T07:03:05.221Z,5.13
2022-10-17T07:09:06.993Z,7.95
2022-10-17T07:15:11.270Z,7.13
2022-10-17T07:21:13.206Z,6.72
2022-10-17T07:27:15.527Z,4.93
2022-10-17T07:33:17.111Z,6.47
2022-10-17T07:39:19.394Z,4.82
2022-10-17T07:45:20.907Z,4.67
2022-10-17T07:51:22.856Z,4.05
2022-10-17T07:57:24.297Z,4.82
2022-10-17T08:03:25.746Z,5.47
2022-10-17T08:09:27.174Z,6.20
2022-10-17T08:15:31.722Z,4.10
2022-10-17T08:21:33.801Z,6.75
2022-10-17T08:27:35.656Z,6.13
2022-10-17T08:33:37.480Z,6.37
2022-10-17T08:39:39.211Z,6.07
2022-10-17T08:45:45.964Z,6.67
2022-10-17T08:51:53.930Z,5.90
2022-10-17T08:57:55.395Z,8.32
2022-10-17T09:03:59.668Z,4.83
2022-10-17T09:10:04.372Z,4.00
2022-10-17T09:16:07.443Z,3.90
2022-10-17T09:22:10.779Z,4.18
2022-10-17T09:28:23.537Z,4.82
2022-10-17T09:34:27.456Z,8.20
2022-10-17T09:40:32.720Z,4.00
2022-10-17T09:46:36.913Z,5.23
2022-10-17T09:52:40.324Z,6.43
2022-10-17T09:58:46.165Z,5.82
2022-10-17T10:05:04.114Z,5.80
2022-10-17T10:11:13.367Z,4.75
2022-10-17T10:17:26.490Z,6.77
2022-10-17T10:23:27.927Z,7.03
2022-10-17T10:29:36.765Z,4.93
2022-10-17T10:35:38.494Z,4.97
2022-10-17T10:41:49.386Z,5.90
2022-10-17T10:48:00.956Z,6.20
2022-10-17T10:54:11.083Z,4.72
2022-10-17T11:00:15.472Z,5.80
2022-10-17T11:06:20.324Z,4.47
2022-10-17T11:12:34.369Z,4.28
2022-10-17T11:18:42.030Z,9.23
2022-10-17T11:24:48.655Z,4.78
2022-10-17T11:30:52.416Z,4.68
2022-10-17T11:36:59.044Z,6.47
2022-10-17T11:43:05.402Z,4.68
2022-10-17T11:49:20.157Z,4.50
2022-10-17T11:55:23.320Z,5.28
2022-10-17T12:01:29.125Z,5.28
2022-10-17T12:07:30.904Z,5.50
2022-10-17T12:13:32.682Z,5.65
2022-10-17T12:19:37.447Z,3.80
2022-10-17T12:25:49.948Z,4.45
2022-10-17T12:31:51.460Z,5.65
2022-10-17T12:37:57.320Z,4.27
2022-10-17T12:44:00.314Z,4.63
2022-10-17T12:50:01.833Z,6.67
2022-10-17T12:56:03.379Z,6.75
2022-10-17T13:02:08.975Z,4.85
2022-10-17T13:08:15.491Z,8.50
2022-10-17T13:14:18.704Z,5.97
2022-10-17T13:20:25.547Z,9.60
2022-10-17T13:26:30.465Z,5.05
2022-10-17T13:32:37.100Z,6.47
2022-10-17T13:38:41.753Z,5.27
2022-10-17T13:44:44.271Z,5.43
2022-10-17T13:50:47.710Z,7.03
2022-10-17T14:03:01.788Z,5.38
2022-10-17T14:09:07.504Z,6.13
2022-10-17T14:15:13.094Z,4.65
2022-10-17T14:21:42.953Z,4.90
2022-10-17T14:28:03.058Z,5.37
2022-10-17T14:34:04.982Z,4.18
2022-10-17T14:40:07.173Z,6.73
2022-10-17T14:46:14.375Z,5.75
2022-10-17T14:52:18.168Z,4.68
2022-10-17T14:58:25.140Z,7.00
2022-10-17T15:04:26.706Z,5.40
2022-10-17T15:10:31.995Z,6.30
2022-10-17T15:16:34.799Z,7.22
2022-10-17T15:22:36.560Z,5.75
2022-10-17T15:28:38.077Z,5.10
2022-10-17T15:34:39.715Z,5.45
2022-10-17T15:40:41.209Z,7.30
2022-10-17T15:46:42.795Z,6.88
2022-10-17T15:52:44.414Z,6.10
2022-10-17T15:58:45.977Z,8.37
2022-10-17T16:04:48.501Z,5.90
2022-10-17T16:10:50.375Z,6.17
2022-10-17T16:16:51.821Z,7.38
2022-10-17T16:22:59.478Z,7.07
2022-10-17T16:29:03.437Z,8.20
2022-10-17T16:35:05.852Z,7.38
2022-10-17T16:41:20.240Z,13.90
2022-10-17T16:47:21.705Z,10.30
2022-10-17T16:53:23.153Z,11.98
2022-10-17T16:59:24.683Z,10.63
2022-10-17T17:05:26.193Z,10.93
2022-10-17T17:11:28.143Z,9.03
2022-10-17T17:17:44.543Z,9.43
2022-10-17T17:23:50.540Z,8.65
2022-10-17T17:29:52.007Z,8.23
2022-10-17T17:36:00.652Z,8.02
2022-10-17T17:42:02.185Z,7.73
2022-10-17T17:48:03.703Z,6.40
2022-10-17T17:54:05.313Z,11.27
2022-10-17T18:00:07.102Z,9.33
2022-10-17T18:06:08.782Z,9.60
2022-10-17T18:12:17.781Z,7.77
2022-10-17T18:18:19.291Z,9.40
2022-10-17T18:24:20.786Z,10.43
2022-10-17T18:30:25.506Z,14.03
2022-10-17T18:36:29.249Z,10.90
2022-10-17T18:42:31.034Z,9.20
2022-10-17T18:48:33.169Z,15.13
2022-10-17T18:54:34.698Z,13.13
2022-10-17T19:00:37.028Z,15.33
2022-10-17T19:06:38.878Z,11.15
2022-10-17T19:12:40.449Z,13.03
2022-10-17T19:18:41.915Z,9.93
2022-10-17T19:24:43.366Z,14.38
2022-10-17T19:30:44.810Z,10.93
2022-10-17T19:36:46.255Z,11.68
2022-10-17T19:42:47.726Z,11.97
2022-10-17T19:48:49.760Z,12.48
2022-10-17T19:54:51.219Z,9.73
2022-10-17T20:00:54.547Z,10.90
2022-10-17T20:06:59.710Z,10.63
2022-10-17T20:13:01.181Z,11.43
2022-10-17T20:19:10.163Z,9.32
2022-10-17T20:25:11.605Z,8.98
2022-10-17T20:31:13.796Z,10.87
2022-10-17T20:37:15.240Z,10.60
2022-10-17T20:43:16.704Z,10.23
2022-10-17T20:49:18.878Z,7.38
2022-10-17T20:55:20.451Z,8.05
2022-10-17T21:01:22.535Z,7.77
2022-10-17T21:07:25.251Z,10.27
2022-10-17T21:13:26.721Z,9.27
2022-10-17T21:19:28.172Z,6.82
2022-10-17T21:25:30.551Z,7.05
2022-10-17T21:31:32.921Z,7.70
2022-10-17T21:37:34.500Z,8.50
2022-10-17T21:43:36.501Z,8.27
2022-10-17T21:49:38.341Z,8.05
2022-10-17T21:55:39.855Z,9.25
2022-10-17T22:01:42.481Z,9.63
2022-10-17T22:07:43.958Z,9.55
2022-10-17T22:13:45.623Z,7.20
2022-10-17T22:19:47.270Z,8.60
2022-10-17T22:25:55.184Z,9.20
2022-10-17T22:31:56.606Z,7.73
2022-10-17T22:37:58.042Z,8.20
2022-10-17T22:43:59.504Z,7.60
2022-10-17T22:50:00.940Z,10.05
2022-10-17T22:56:04.228Z,7.35
2022-10-17T23:02:05.664Z,9.13
2022-10-17T23:08:07.124Z,12.43
2022-10-17T23:14:08.572Z,7.73
2022-10-17T23:20:10.300Z,10.13
2022-10-17T23:26:13.228Z,10.65
2022-10-17T23:32:14.678Z,8.90
2022-10-17T23:38:16.108Z,7.88
2022-10-17T23:44:17.559Z,8.13
2022-10-17T23:50:19.228Z,8.00
2022-10-17T23:56:20.678Z,9.23
